Station Historical Data
Daily Summary for March 22, 2017 Units:  Both    English   Metric
« Previous Day
Next Day »
Daily Weekly Monthly Yearly Custom
  High: Low: Average:
Temperature: 32.7 °F /  0.4 °C 18.4 °F /  -7.6 °C 24.4 °F /  -4.2 °C
Dew Point: 25.0 °F /  -3.9 °C 2.0 °F /  -16.7 °C 8.6 °F /  -13 °C
Humidity: 73% 38% 51%
Wind Speed: 13.0mph /  20.9km/h - 5.1mph /  8.2km/h
Wind Gust: 22.0mph /  35.4km/h - -
Wind- - WNW
Pressure: 30.57 in /  1035.1 hPa 30.07 in /  1018.2 hPa -
Precipitation: 0.00 in /  0 mm    
Historical Graphs
 
 
Tabular Data for March 22, 2017
Time Temperature Dew Point Pressure Wind Wind Speed Wind Gust Humidity Rainfall Rate (Hourly)
00:04 32.7 °F /  0.4 °C 25.0 °F /  -3.9 °C 30.07in /  1018.2hPa NNW 7.0mph /  11.3km/h 16.0mph /  25.7km/h 73% 0.00in /  0mm
00:09 32.7 °F /  0.4 °C 25.0 °F /  -3.9 °C 30.07in /  1018.2hPa NNW 6.0mph /  9.7km/h 16.0mph /  25.7km/h 73% 0.00in /  0mm
00:14 32.4 °F /  0.2 °C 23.7 °F /  -4.6 °C 30.08in /  1018.5hPa NNW 7.0mph /  11.3km/h 15.0mph /  24.1km/h 70% 0.00in /  0mm
00:19 32.3 °F /  0.2 °C 22.9 °F /  -5.1 °C 30.08in /  1018.5hPa NNW 7.0mph /  11.3km/h 15.0mph /  24.1km/h 68% 0.00in /  0mm
00:24 32.2 °F /  0.1 °C 22.1 °F /  -5.5 °C 30.08in /  1018.5hPa North 8.0mph /  12.9km/h 18.0mph /  29km/h 66% 0.00in /  0mm
00:29 32.2 °F /  0.1 °C 22.1 °F /  -5.5 °C 30.08in /  1018.5hPa NW 3.0mph /  4.8km/h 13.0mph /  20.9km/h 66% 0.00in /  0mm
00:34 32.1 °F /  0.1 °C 22.0 °F /  -5.6 °C 30.08in /  1018.5hPa NW 3.0mph /  4.8km/h 13.0mph /  20.9km/h 66% 0.00in /  0mm
00:39 32.0 °F /  0 °C 21.6 °F /  -5.8 °C 30.08in /  1018.5hPa NNW 6.0mph /  9.7km/h 12.0mph /  19.3km/h 65% 0.00in /  0mm
00:44 32.0 °F /  0 °C 21.6 °F /  -5.8 °C 30.09in /  1018.8hPa NW 4.0mph /  6.4km/h 14.0mph /  22.5km/h 65% 0.00in /  0mm
00:49 31.9 °F /  -0.1 °C 21.1 °F /  -6.1 °C 30.09in /  1018.8hPa North 7.0mph /  11.3km/h 14.0mph /  22.5km/h 64% 0.00in /  0mm
00:54 31.9 °F /  -0.1 °C 20.7 °F /  -6.3 °C 30.09in /  1018.8hPa NNW 7.0mph /  11.3km/h 13.0mph /  20.9km/h 63% 0.00in /  0mm
00:59 31.7 °F /  -0.2 °C 20.5 °F /  -6.4 °C 30.09in /  1018.8hPa NW 5.0mph /  8km/h 13.0mph /  20.9km/h 63% 0.00in /  0mm
01:04 31.7 °F /  -0.2 °C 20.5 °F /  -6.4 °C 30.10in /  1019.2hPa NNW 5.0mph /  8km/h 14.0mph /  22.5km/h 63% 0.00in /  0mm
01:09 31.6 °F /  -0.2 °C 20.1 °F /  -6.6 °C 30.10in /  1019.2hPa NNW 7.0mph /  11.3km/h 19.0mph /  30.6km/h 62% 0.00in /  0mm
01:14 31.5 °F /  -0.3 °C 19.2 °F /  -7.1 °C 30.10in /  1019.2hPa NNW 8.0mph /  12.9km/h 19.0mph /  30.6km/h 60% 0.00in /  0mm
01:19 31.4 °F /  -0.3 °C 18.7 °F /  -7.4 °C 30.11in /  1019.5hPa NNW 7.0mph /  11.3km/h 17.0mph /  27.4km/h 59% 0.00in /  0mm
01:24 31.2 °F /  -0.4 °C 18.5 °F /  -7.5 °C 30.11in /  1019.5hPa NNW 7.0mph /  11.3km/h 15.0mph /  24.1km/h 59% 0.00in /  0mm
01:29 31.1 °F /  -0.5 °C 18.0 °F /  -7.8 °C 30.11in /  1019.5hPa NNW 6.0mph /  9.7km/h 14.0mph /  22.5km/h 58% 0.00in /  0mm
01:34 31.1 °F /  -0.5 °C 18.4 °F /  -7.6 °C 30.12in /  1019.9hPa NNW 7.0mph /  11.3km/h 15.0mph /  24.1km/h 59% 0.00in /  0mm
01:39 30.9 °F /  -0.6 °C 17.4 °F /  -8.1 °C 30.12in /  1019.9hPa NNW 7.0mph /  11.3km/h 17.0mph /  27.4km/h 57% 0.00in /  0mm
01:44 30.7 °F /  -0.7 °C 16.4 °F /  -8.7 °C 30.12in /  1019.9hPa North 13.0mph /  20.9km/h 18.0mph /  29km/h 55% 0.00in /  0mm
01:49 30.6 °F /  -0.8 °C 16.7 °F /  -8.5 °C 30.13in /  1020.2hPa NW 7.0mph /  11.3km/h 20.0mph /  32.2km/h 56% 0.00in /  0mm
01:54 30.4 °F /  -0.9 °C 17.0 °F /  -8.3 °C 30.14in /  1020.5hPa NNE 6.0mph /  9.7km/h 16.0mph /  25.7km/h 57% 0.00in /  0mm
01:59 30.1 °F /  -1.1 °C 16.7 °F /  -8.5 °C 30.14in /  1020.5hPa NW 8.0mph /  12.9km/h 14.0mph /  22.5km/h 57% 0.00in /  0mm
02:04 30.1 °F /  -1.1 °C 15.9 °F /  -8.9 °C 30.14in /  1020.5hPa NNW 3.0mph /  4.8km/h 13.0mph /  20.9km/h 55% 0.00in /  0mm
02:09 29.9 °F /  -1.2 °C 15.3 °F /  -9.3 °C 30.15in /  1020.9hPa NNW 7.0mph /  11.3km/h 17.0mph /  27.4km/h 54% 0.00in /  0mm
02:14 29.7 °F /  -1.3 °C 15.1 °F /  -9.4 °C 30.15in /  1020.9hPa NNW 7.0mph /  11.3km/h 17.0mph /  27.4km/h 54% 0.00in /  0mm
02:19 29.5 °F /  -1.4 °C 14.9 °F /  -9.5 °C 30.15in /  1020.9hPa NNW 8.0mph /  12.9km/h 17.0mph /  27.4km/h 54% 0.00in /  0mm
02:24 29.4 °F /  -1.4 °C 14.8 °F /  -9.6 °C 30.16in /  1021.2hPa NNW 8.0mph /  12.9km/h 17.0mph /  27.4km/h 54% 0.00in /  0mm
02:29 29.2 °F /  -1.6 °C 15.0 °F /  -9.4 °C 30.16in /  1021.2hPa NNW 7.0mph /  11.3km/h 17.0mph /  27.4km/h 55% 0.00in /  0mm
02:34 29.0 °F /  -1.7 °C 14.4 °F /  -9.8 °C 30.17in /  1021.6hPa North 6.0mph /  9.7km/h 21.0mph /  33.8km/h 54% 0.00in /  0mm
02:39 28.7 °F /  -1.8 °C 13.7 °F /  -10.2 °C 30.17in /  1021.6hPa NNE 8.0mph /  12.9km/h 19.0mph /  30.6km/h 53% 0.00in /  0mm
02:44 28.5 °F /  -1.9 °C 13.9 °F /  -10.1 °C 30.18in /  1021.9hPa NNW 9.0mph /  14.5km/h 19.0mph /  30.6km/h 54% 0.00in /  0mm
02:49 28.2 °F /  -2.1 °C 14.1 °F /  -9.9 °C 30.18in /  1021.9hPa NNW 5.0mph /  8km/h 17.0mph /  27.4km/h 55% 0.00in /  0mm
02:54 28.1 °F /  -2.2 °C 13.6 °F /  -10.2 °C 30.18in /  1021.9hPa NNW 9.0mph /  14.5km/h 21.0mph /  33.8km/h 54% 0.00in /  0mm
02:59 27.8 °F /  -2.3 °C 13.7 °F /  -10.2 °C 30.19in /  1022.2hPa NNW 12.0mph /  19.3km/h 16.0mph /  25.7km/h 55% 0.00in /  0mm
03:04 27.6 °F /  -2.4 °C 13.9 °F /  -10.1 °C 30.19in /  1022.2hPa North 9.0mph /  14.5km/h 14.0mph /  22.5km/h 56% 0.00in /  0mm
03:09 27.3 °F /  -2.6 °C 13.2 °F /  -10.4 °C 30.19in /  1022.2hPa NNW 5.0mph /  8km/h 19.0mph /  30.6km/h 55% 0.00in /  0mm
03:14 27.0 °F /  -2.8 °C 13.0 °F /  -10.6 °C 30.20in /  1022.6hPa NNW 8.0mph /  12.9km/h 22.0mph /  35.4km/h 55% 0.00in /  0mm
03:19 26.6 °F /  -3 °C 13.4 °F /  -10.3 °C 30.20in /  1022.6hPa NNW 7.0mph /  11.3km/h 22.0mph /  35.4km/h 57% 0.00in /  0mm
03:24 26.4 °F /  -3.1 °C 12.8 °F /  -10.7 °C 30.20in /  1022.6hPa NNW 6.0mph /  9.7km/h 16.0mph /  25.7km/h 56% 0.00in /  0mm
03:29 26.2 °F /  -3.2 °C 13.0 °F /  -10.6 °C 30.20in /  1022.6hPa NNW 7.0mph /  11.3km/h 16.0mph /  25.7km/h 57% 0.00in /  0mm
03:34 26.1 °F /  -3.3 °C 13.3 °F /  -10.4 °C 30.20in /  1022.6hPa NNW 7.0mph /  11.3km/h 16.0mph /  25.7km/h 58% 0.00in /  0mm
03:39 26.0 °F /  -3.3 °C 13.6 °F /  -10.2 °C 30.21in /  1022.9hPa NW 6.0mph /  9.7km/h 14.0mph /  22.5km/h 59% 0.00in /  0mm
03:44 25.8 °F /  -3.4 °C 12.6 °F /  -10.8 °C 30.21in /  1022.9hPa North 6.0mph /  9.7km/h 16.0mph /  25.7km/h 57% 0.00in /  0mm
03:49 25.6 °F /  -3.6 °C 12.5 °F /  -10.8 °C 30.21in /  1022.9hPa NNW 7.0mph /  11.3km/h 16.0mph /  25.7km/h 57% 0.00in /  0mm
03:54 25.4 °F /  -3.7 °C 12.3 °F /  -10.9 °C 30.22in /  1023.2hPa NNE 6.0mph /  9.7km/h 12.0mph /  19.3km/h 57% 0.00in /  0mm
03:59 25.1 °F /  -3.8 °C 12.0 °F /  -11.1 °C 30.22in /  1023.2hPa North 9.0mph /  14.5km/h 18.0mph /  29km/h 57% 0.00in /  0mm
04:04 24.9 °F /  -3.9 °C 11.4 °F /  -11.4 °C 30.22in /  1023.2hPa NW 5.0mph /  8km/h 17.0mph /  27.4km/h 56% 0.00in /  0mm
04:09 24.8 °F /  -4 °C 11.7 °F /  -11.3 °C 30.23in /  1023.6hPa NNE 7.0mph /  11.3km/h 17.0mph /  27.4km/h 57% 0.00in /  0mm
04:14 24.7 °F /  -4.1 °C 12.0 °F /  -11.1 °C 30.23in /  1023.6hPa NNW 4.0mph /  6.4km/h 13.0mph /  20.9km/h 58% 0.00in /  0mm
04:19 24.6 °F /  -4.1 °C 12.3 °F /  -10.9 °C 30.23in /  1023.6hPa NW 7.0mph /  11.3km/h 15.0mph /  24.1km/h 59% 0.00in /  0mm
04:24 24.6 °F /  -4.1 °C 12.7 °F /  -10.7 °C 30.24in /  1023.9hPa NW 6.0mph /  9.7km/h 15.0mph /  24.1km/h 60% 0.00in /  0mm
04:29 24.6 °F /  -4.1 °C 13.4 °F /  -10.3 °C 30.24in /  1023.9hPa NNW 6.0mph /  9.7km/h 13.0mph /  20.9km/h 62% 0.00in /  0mm
04:34 24.6 °F /  -4.1 °C 14.9 °F /  -9.5 °C 30.25in /  1024.3hPa NNW 7.0mph /  11.3km/h 16.0mph /  25.7km/h 66% 0.00in /  0mm
04:39 24.1 °F /  -4.4 °C 15.1 °F /  -9.4 °C 30.25in /  1024.3hPa NNW 7.0mph /  11.3km/h 16.0mph /  25.7km/h 68% 0.00in /  0mm
04:44 23.6 °F /  -4.7 °C 14.6 °F /  -9.7 °C 30.26in /  1024.6hPa North 10.0mph /  16.1km/h 18.0mph /  29km/h 68% 0.00in /  0mm
04:49 23.2 °F /  -4.9 °C 13.9 °F /  -10.1 °C 30.26in /  1024.6hPa North 8.0mph /  12.9km/h 18.0mph /  29km/h 67% 0.00in /  0mm
04:54 22.9 °F /  -5.1 °C 12.5 °F /  -10.8 °C 30.26in /  1024.6hPa NNW 7.0mph /  11.3km/h 16.0mph /  25.7km/h 64% 0.00in /  0mm
04:59 22.6 °F /  -5.2 °C 10.0 °F /  -12.2 °C 30.27in /  1024.9hPa NNW 10.0mph /  16.1km/h 17.0mph /  27.4km/h 58% 0.00in /  0mm
05:04 22.2 °F /  -5.4 °C 8.5 °F /  -13.1 °C 30.27in /  1024.9hPa NNW 11.0mph /  17.7km/h 19.0mph /  30.6km/h 55% 0.00in /  0mm
05:09 21.8 °F /  -5.7 °C 6.0 °F /  -14.4 °C 30.28in /  1025.3hPa North 11.0mph /  17.7km/h 19.0mph /  30.6km/h 50% 0.00in /  0mm
05:14 21.5 °F /  -5.8 °C 5.7 °F /  -14.6 °C 30.29in /  1025.6hPa NNW 6.0mph /  9.7km/h 18.0mph /  29km/h 50% 0.00in /  0mm
05:19 21.1 °F /  -6.1 °C 4.9 °F /  -15.1 °C 30.29in /  1025.6hPa North 10.0mph /  16.1km/h 19.0mph /  30.6km/h 49% 0.00in /  0mm
05:24 20.9 °F /  -6.2 °C 4.3 °F /  -15.4 °C 30.30in /  1026hPa North 8.0mph /  12.9km/h 19.0mph /  30.6km/h 48% 0.00in /  0mm
05:29 20.6 °F /  -6.3 °C 4.4 °F /  -15.3 °C 30.30in /  1026hPa North 10.0mph /  16.1km/h 17.0mph /  27.4km/h 49% 0.00in /  0mm
05:34 20.4 °F /  -6.4 °C 5.1 °F /  -14.9 °C 30.31in /  1026.3hPa North 8.0mph /  12.9km/h 17.0mph /  27.4km/h 51% 0.00in /  0mm
05:39 20.3 °F /  -6.5 °C 5.5 °F /  -14.7 °C 30.31in /  1026.3hPa North 7.0mph /  11.3km/h 16.0mph /  25.7km/h 52% 0.00in /  0mm
05:44 20.1 °F /  -6.6 °C 4.8 °F /  -15.1 °C 30.32in /  1026.6hPa North 8.0mph /  12.9km/h 19.0mph /  30.6km/h 51% 0.00in /  0mm
05:49 20.0 °F /  -6.7 °C 4.3 °F /  -15.4 °C 30.32in /  1026.6hPa NNE 3.0mph /  4.8km/h 22.0mph /  35.4km/h 50% 0.00in /  0mm
05:54 19.8 °F /  -6.8 °C 4.6 °F /  -15.2 °C 30.32in /  1026.6hPa North 8.0mph /  12.9km/h 16.0mph /  25.7km/h 51% 0.00in /  0mm
05:59 19.7 °F /  -6.8 °C 4.9 °F /  -15.1 °C 30.32in /  1026.6hPa NNW 5.0mph /  8km/h 11.0mph /  17.7km/h 52% 0.00in /  0mm
06:04 19.6 °F /  -6.9 °C 4.8 °F /  -15.1 °C 30.33in /  1027hPa North 12.0mph /  19.3km/h 14.0mph /  22.5km/h 52% 0.00in /  0mm
06:09 19.5 °F /  -6.9 °C 5.1 °F /  -14.9 °C 30.33in /  1027hPa NE 6.0mph /  9.7km/h 12.0mph /  19.3km/h 53% 0.00in /  0mm
06:19 19.4 °F /  -7 °C 5.4 °F /  -14.8 °C 30.34in /  1027.3hPa North 7.0mph /  11.3km/h 12.0mph /  19.3km/h 54% 0.00in /  0mm
06:24 19.4 °F /  -7 °C 5.4 °F /  -14.8 °C 30.34in /  1027.3hPa North 6.0mph /  9.7km/h 13.0mph /  20.9km/h 54% 0.00in /  0mm
06:29 19.3 °F /  -7.1 °C 5.3 °F /  -14.8 °C 30.34in /  1027.3hPa North 6.0mph /  9.7km/h 13.0mph /  20.9km/h 54% 0.00in /  0mm
06:34 19.4 °F /  -7 °C 5.8 °F /  -14.6 °C 30.34in /  1027.3hPa NNW 6.0mph /  9.7km/h 15.0mph /  24.1km/h 55% 0.00in /  0mm
06:39 19.2 °F /  -7.1 °C 5.7 °F /  -14.6 °C 30.35in /  1027.7hPa NNW 6.0mph /  9.7km/h 15.0mph /  24.1km/h 55% 0.00in /  0mm
06:44 19.3 °F /  -7.1 °C 5.3 °F /  -14.8 °C 30.36in /  1028hPa North 7.0mph /  11.3km/h 18.0mph /  29km/h 54% 0.00in /  0mm
06:49 19.2 °F /  -7.1 °C 5.7 °F /  -14.6 °C 30.36in /  1028hPa North 7.0mph /  11.3km/h 18.0mph /  29km/h 55% 0.00in /  0mm
06:54 19.1 °F /  -7.2 °C 5.2 °F /  -14.9 °C 30.36in /  1028hPa NNE 5.0mph /  8km/h 15.0mph /  24.1km/h 54% 0.00in /  0mm
06:59 18.9 °F /  -7.3 °C 5.0 °F /  -15 °C 30.36in /  1028hPa NNW 5.0mph /  8km/h 14.0mph /  22.5km/h 54% 0.00in /  0mm
07:04 18.9 °F /  -7.3 °C 4.1 °F /  -15.5 °C 30.37in /  1028.3hPa NNW 7.0mph /  11.3km/h 20.0mph /  32.2km/h 52% 0.00in /  0mm
07:09 18.8 °F /  -7.3 °C 4.9 °F /  -15.1 °C 30.37in /  1028.3hPa NW 9.0mph /  14.5km/h 10.0mph /  16.1km/h 54% 0.00in /  0mm
07:14 18.7 °F /  -7.4 °C 4.8 °F /  -15.1 °C 30.37in /  1028.3hPa North 10.0mph /  16.1km/h 13.0mph /  20.9km/h 54% 0.00in /  0mm
07:19 18.7 °F /  -7.4 °C 4.4 °F /  -15.3 °C 30.37in /  1028.3hPa NW 2.0mph /  3.2km/h 14.0mph /  22.5km/h 53% 0.00in /  0mm
07:24 18.6 °F /  -7.4 °C 4.7 °F /  -15.2 °C 30.37in /  1028.3hPa North 3.0mph /  4.8km/h 12.0mph /  19.3km/h 54% 0.00in /  0mm
07:29 18.5 °F /  -7.5 °C 4.2 °F /  -15.4 °C 30.38in /  1028.7hPa NNW 6.0mph /  9.7km/h 16.0mph /  25.7km/h 53% 0.00in /  0mm
07:34 18.4 °F /  -7.6 °C 4.5 °F /  -15.3 °C 30.39in /  1029hPa NNW 6.0mph /  9.7km/h 16.0mph /  25.7km/h 54% 0.00in /  0mm
07:39 18.4 °F /  -7.6 °C 4.5 °F /  -15.3 °C 30.39in /  1029hPa NNW 5.0mph /  8km/h 14.0mph /  22.5km/h 54% 0.00in /  0mm
07:44 18.5 °F /  -7.5 °C 4.2 °F /  -15.4 °C 30.39in /  1029hPa NNW 4.0mph /  6.4km/h 15.0mph /  24.1km/h 53% 0.00in /  0mm
07:49 18.5 °F /  -7.5 °C 4.6 °F /  -15.2 °C 30.39in /  1029hPa North 7.0mph /  11.3km/h 13.0mph /  20.9km/h 54% 0.00in /  0mm
07:54 18.6 °F /  -7.4 °C 4.7 °F /  -15.2 °C 30.40in /  1029.3hPa North 3.0mph /  4.8km/h 13.0mph /  20.9km/h 54% 0.00in /  0mm
07:59 18.7 °F /  -7.4 °C 4.8 °F /  -15.1 °C 30.40in /  1029.3hPa North 6.0mph /  9.7km/h 13.0mph /  20.9km/h 54% 0.00in /  0mm
08:04 18.8 °F /  -7.3 °C 5.3 °F /  -14.8 °C 30.40in /  1029.3hPa North 6.0mph /  9.7km/h 13.0mph /  20.9km/h 55% 0.00in /  0mm
08:09 18.9 °F /  -7.3 °C 5.0 °F /  -15 °C 30.41in /  1029.7hPa North 6.0mph /  9.7km/h 12.0mph /  19.3km/h 54% 0.00in /  0mm
08:14 18.9 °F /  -7.3 °C 5.0 °F /  -15 °C 30.41in /  1029.7hPa North 6.0mph /  9.7km/h 12.0mph /  19.3km/h 54% 0.00in /  0mm
08:19 19.0 °F /  -7.2 °C 4.7 °F /  -15.2 °C 30.41in /  1029.7hPa NNW 7.0mph /  11.3km/h 12.0mph /  19.3km/h 53% 0.00in /  0mm
08:24 19.1 °F /  -7.2 °C 4.3 °F /  -15.4 °C 30.42in /  1030hPa NW 7.0mph /  11.3km/h 14.0mph /  22.5km/h 52% 0.00in /  0mm
08:29 19.0 °F /  -7.2 °C 3.4 °F /  -15.9 °C 30.42in /  1030hPa NW 4.0mph /  6.4km/h 16.0mph /  25.7km/h 50% 0.00in /  0mm
08:34 19.1 °F /  -7.2 °C 3.9 °F /  -15.6 °C 30.42in /  1030hPa North 7.0mph /  11.3km/h 16.0mph /  25.7km/h 51% 0.00in /  0mm
08:39 19.3 °F /  -7.1 °C 4.1 °F /  -15.5 °C 30.42in /  1030hPa NNW 7.0mph /  11.3km/h 14.0mph /  22.5km/h 51% 0.00in /  0mm
08:44 19.9 °F /  -6.7 °C 5.1 °F /  -14.9 °C 30.43in /  1030.4hPa NNW 6.0mph /  9.7km/h 14.0mph /  22.5km/h 52% 0.00in /  0mm
08:49 20.1 °F /  -6.6 °C 5.3 °F /  -14.8 °C 30.43in /  1030.4hPa NW 3.0mph /  4.8km/h 12.0mph /  19.3km/h 52% 0.00in /  0mm
08:54 20.0 °F /  -6.7 °C 3.9 °F /  -15.6 °C 30.43in /  1030.4hPa North 9.0mph /  14.5km/h 15.0mph /  24.1km/h 49% 0.00in /  0mm
08:59 20.1 °F /  -6.6 °C 4.4 °F /  -15.3 °C 30.43in /  1030.4hPa North 10.0mph /  16.1km/h 12.0mph /  19.3km/h 50% 0.00in /  0mm
09:04 20.3 °F /  -6.5 °C 5.0 °F /  -15 °C 30.44in /  1030.7hPa NNE 6.0mph /  9.7km/h 11.0mph /  17.7km/h 51% 0.00in /  0mm
09:09 20.4 °F /  -6.4 °C 5.1 °F /  -14.9 °C 30.44in /  1030.7hPa North 6.0mph /  9.7km/h 12.0mph /  19.3km/h 51% 0.00in /  0mm
09:14 20.3 °F /  -6.5 °C 3.2 °F /  -16 °C 30.44in /  1030.7hPa North 7.0mph /  11.3km/h 17.0mph /  27.4km/h 47% 0.00in /  0mm
09:19 20.8 °F /  -6.2 °C 3.7 °F /  -15.7 °C 30.45in /  1031hPa North 7.0mph /  11.3km/h 17.0mph /  27.4km/h 47% 0.00in /  0mm
09:24 20.7 °F /  -6.3 °C 4.1 °F /  -15.5 °C 30.45in /  1031hPa NNW 6.0mph /  9.7km/h 11.0mph /  17.7km/h 48% 0.00in /  0mm
09:29 20.6 °F /  -6.3 °C 4.0 °F /  -15.6 °C 30.45in /  1031hPa NNE 4.0mph /  6.4km/h 12.0mph /  19.3km/h 48% 0.00in /  0mm
09:34 21.0 °F /  -6.1 °C 4.4 °F /  -15.3 °C 30.46in /  1031.4hPa NNW 10.0mph /  16.1km/h 14.0mph /  22.5km/h 48% 0.00in /  0mm
09:39 21.2 °F /  -6 °C 4.5 °F /  -15.3 °C 30.46in /  1031.4hPa NNW 7.0mph /  11.3km/h 14.0mph /  22.5km/h 48% 0.00in /  0mm
09:44 21.3 °F /  -5.9 °C 4.6 °F /  -15.2 °C 30.46in /  1031.4hPa NNW 7.0mph /  11.3km/h 16.0mph /  25.7km/h 48% 0.00in /  0mm
09:49 21.3 °F /  -5.9 °C 3.2 °F /  -16 °C 30.46in /  1031.4hPa North 7.0mph /  11.3km/h 16.0mph /  25.7km/h 45% 0.00in /  0mm
09:54 21.3 °F /  -5.9 °C 4.2 °F /  -15.4 °C 30.47in /  1031.7hPa NNW 7.0mph /  11.3km/h 13.0mph /  20.9km/h 47% 0.00in /  0mm
09:59 21.8 °F /  -5.7 °C 4.6 °F /  -15.2 °C 30.47in /  1031.7hPa NNW 5.0mph /  8km/h 11.0mph /  17.7km/h 47% 0.00in /  0mm
10:04 21.5 °F /  -5.8 °C 4.8 °F /  -15.1 °C 30.48in /  1032.1hPa NNW 7.0mph /  11.3km/h 15.0mph /  24.1km/h 48% 0.00in /  0mm
10:09 21.4 °F /  -5.9 °C 4.7 °F /  -15.2 °C 30.48in /  1032.1hPa NW 5.0mph /  8km/h 14.0mph /  22.5km/h 48% 0.00in /  0mm
10:14 21.7 °F /  -5.7 °C 4.5 °F /  -15.3 °C 30.48in /  1032.1hPa NNW 7.0mph /  11.3km/h 14.0mph /  22.5km/h 47% 0.00in /  0mm
10:19 21.6 °F /  -5.8 °C 4.9 °F /  -15.1 °C 30.48in /  1032.1hPa NNW 6.0mph /  9.7km/h 14.0mph /  22.5km/h 48% 0.00in /  0mm
10:24 21.7 °F /  -5.7 °C 5.5 °F /  -14.7 °C 30.48in /  1032.1hPa NW 7.0mph /  11.3km/h 13.0mph /  20.9km/h 49% 0.00in /  0mm
10:29 22.2 °F /  -5.4 °C 5.5 °F /  -14.7 °C 30.49in /  1032.4hPa NNW 10.0mph /  16.1km/h 12.0mph /  19.3km/h 48% 0.00in /  0mm
10:34 22.4 °F /  -5.3 °C 6.1 °F /  -14.4 °C 30.49in /  1032.4hPa North 6.0mph /  9.7km/h 15.0mph /  24.1km/h 49% 0.00in /  0mm
10:39 21.7 °F /  -5.7 °C 5.5 °F /  -14.7 °C 30.49in /  1032.4hPa NNE 5.0mph /  8km/h 13.0mph /  20.9km/h 49% 0.00in /  0mm
10:44 21.7 °F /  -5.7 °C 5.9 °F /  -14.5 °C 30.49in /  1032.4hPa North 7.0mph /  11.3km/h 13.0mph /  20.9km/h 50% 0.00in /  0mm
10:49 22.7 °F /  -5.2 °C 6.4 °F /  -14.2 °C 30.50in /  1032.7hPa North 6.0mph /  9.7km/h 12.0mph /  19.3km/h 49% 0.00in /  0mm
10:54 22.1 °F /  -5.5 °C 4.0 °F /  -15.6 °C 30.49in /  1032.4hPa North 8.0mph /  12.9km/h 14.0mph /  22.5km/h 45% 0.00in /  0mm
10:59 22.1 °F /  -5.5 °C 5.4 °F /  -14.8 °C 30.50in /  1032.7hPa NW 7.0mph /  11.3km/h 13.0mph /  20.9km/h 48% 0.00in /  0mm
11:04 22.4 °F /  -5.3 °C 6.1 °F /  -14.4 °C 30.50in /  1032.7hPa North 4.0mph /  6.4km/h 10.0mph /  16.1km/h 49% 0.00in /  0mm
11:09 23.2 °F /  -4.9 °C 7.7 °F /  -13.5 °C 30.50in /  1032.7hPa WNW 5.0mph /  8km/h 7.0mph /  11.3km/h 51% 0.00in /  0mm
11:14 23.0 °F /  -5 °C 6.2 °F /  -14.3 °C 30.50in /  1032.7hPa NW 4.0mph /  6.4km/h 10.0mph /  16.1km/h 48% 0.00in /  0mm
11:19 23.0 °F /  -5 °C 5.3 °F /  -14.8 °C 30.50in /  1032.7hPa NNW 5.0mph /  8km/h 10.0mph /  16.1km/h 46% 0.00in /  0mm
11:24 23.3 °F /  -4.8 °C 7.4 °F /  -13.7 °C 30.51in /  1033.1hPa NW 5.0mph /  8km/h 18.0mph /  29km/h 50% 0.00in /  0mm
11:29 23.0 °F /  -5 °C 4.3 °F /  -15.4 °C 30.51in /  1033.1hPa NW 6.0mph /  9.7km/h 18.0mph /  29km/h 44% 0.00in /  0mm
11:34 22.7 °F /  -5.2 °C 3.5 °F /  -15.8 °C 30.51in /  1033.1hPa NW 2.0mph /  3.2km/h 10.0mph /  16.1km/h 43% 0.00in /  0mm
11:39 23.0 °F /  -5 °C 2.8 °F /  -16.2 °C 30.51in /  1033.1hPa NW 7.0mph /  11.3km/h 15.0mph /  24.1km/h 41% 0.00in /  0mm
11:44 22.7 °F /  -5.2 °C 2.0 °F /  -16.7 °C 30.51in /  1033.1hPa NNW 3.0mph /  4.8km/h 15.0mph /  24.1km/h 40% 0.00in /  0mm
11:49 23.9 °F /  -4.5 °C 4.1 °F /  -15.5 °C 30.51in /  1033.1hPa NW 7.0mph /  11.3km/h 15.0mph /  24.1km/h 42% 0.00in /  0mm
11:54 23.2 °F /  -4.9 °C 2.9 °F /  -16.2 °C 30.51in /  1033.1hPa NNW 6.0mph /  9.7km/h 12.0mph /  19.3km/h 41% 0.00in /  0mm
11:59 22.7 °F /  -5.2 °C 3.0 °F /  -16.1 °C 30.51in /  1033.1hPa North 6.0mph /  9.7km/h 12.0mph /  19.3km/h 42% 0.00in /  0mm
12:04 23.2 °F /  -4.9 °C 2.9 °F /  -16.2 °C 30.51in /  1033.1hPa North 3.0mph /  4.8km/h 14.0mph /  22.5km/h 41% 0.00in /  0mm
12:09 23.7 °F /  -4.6 °C 4.9 °F /  -15.1 °C 30.51in /  1033.1hPa North 6.0mph /  9.7km/h 10.0mph /  16.1km/h 44% 0.00in /  0mm
12:14 24.3 °F /  -4.3 °C 6.0 °F /  -14.4 °C 30.51in /  1033.1hPa WSW 6.0mph /  9.7km/h 9.0mph /  14.5km/h 45% 0.00in /  0mm
12:19 24.2 °F /  -4.3 °C 6.4 °F /  -14.2 °C 30.52in /  1033.4hPa NNE 5.0mph /  8km/h 9.0mph /  14.5km/h 46% 0.00in /  0mm
12:24 24.8 °F /  -4 °C 7.4 °F /  -13.7 °C 30.52in /  1033.4hPa NNW 5.0mph /  8km/h 11.0mph /  17.7km/h 47% 0.00in /  0mm
12:29 25.6 °F /  -3.6 °C 7.2 °F /  -13.8 °C 30.52in /  1033.4hPa NW 5.0mph /  8km/h 15.0mph /  24.1km/h 45% 0.00in /  0mm
12:34 24.9 °F /  -3.9 °C 7.5 °F /  -13.6 °C 30.52in /  1033.4hPa NW 6.0mph /  9.7km/h 15.0mph /  24.1km/h 47% 0.00in /  0mm
12:39 24.8 °F /  -4 °C 6.9 °F /  -13.9 °C 30.52in /  1033.4hPa NNW 6.0mph /  9.7km/h 13.0mph /  20.9km/h 46% 0.00in /  0mm
12:44 25.1 °F /  -3.8 °C 7.7 °F /  -13.5 °C 30.52in /  1033.4hPa NW 6.0mph /  9.7km/h 13.0mph /  20.9km/h 47% 0.00in /  0mm
12:49 25.8 °F /  -3.4 °C 7.8 °F /  -13.4 °C 30.52in /  1033.4hPa NW 5.0mph /  8km/h 13.0mph /  20.9km/h 46% 0.00in /  0mm
12:54 25.7 °F /  -3.5 °C 8.7 °F /  -12.9 °C 30.52in /  1033.4hPa NW 5.0mph /  8km/h 13.0mph /  20.9km/h 48% 0.00in /  0mm
12:59 25.6 °F /  -3.6 °C 8.6 °F /  -13 °C 30.52in /  1033.4hPa NNW 5.0mph /  8km/h 13.0mph /  20.9km/h 48% 0.00in /  0mm
13:04 26.1 °F /  -3.3 °C 7.1 °F /  -13.8 °C 30.53in /  1033.7hPa West 8.0mph /  12.9km/h 17.0mph /  27.4km/h 44% 0.00in /  0mm
13:09 24.8 °F /  -4 °C 6.4 °F /  -14.2 °C 30.52in /  1033.4hPa WSW 4.0mph /  6.4km/h 8.0mph /  12.9km/h 45% 0.00in /  0mm
13:14 25.9 °F /  -3.4 °C 4.9 °F /  -15.1 °C 30.52in /  1033.4hPa NNW 7.0mph /  11.3km/h 13.0mph /  20.9km/h 40% 0.00in /  0mm
13:19 25.5 °F /  -3.6 °C 6.1 °F /  -14.4 °C 30.52in /  1033.4hPa WNW 4.0mph /  6.4km/h 12.0mph /  19.3km/h 43% 0.00in /  0mm
13:24 26.1 °F /  -3.3 °C 5.0 °F /  -15 °C 30.53in /  1033.7hPa NNW 4.0mph /  6.4km/h 14.0mph /  22.5km/h 40% 0.00in /  0mm
13:29 24.8 °F /  -4 °C 4.9 °F /  -15.1 °C 30.53in /  1033.7hPa NNW 6.0mph /  9.7km/h 14.0mph /  22.5km/h 42% 0.00in /  0mm
13:34 24.8 °F /  -4 °C 5.9 °F /  -14.5 °C 30.53in /  1033.7hPa NNW 6.0mph /  9.7km/h 14.0mph /  22.5km/h 44% 0.00in /  0mm
13:39 25.0 °F /  -3.9 °C 6.1 °F /  -14.4 °C 30.52in /  1033.4hPa NNW 6.0mph /  9.7km/h 12.0mph /  19.3km/h 44% 0.00in /  0mm
13:44 26.2 °F /  -3.2 °C 8.7 °F /  -12.9 °C 30.53in /  1033.7hPa NW 6.0mph /  9.7km/h 14.0mph /  22.5km/h 47% 0.00in /  0mm
13:49 25.8 °F /  -3.4 °C 6.3 °F /  -14.3 °C 30.53in /  1033.7hPa NW 6.0mph /  9.7km/h 14.0mph /  22.5km/h 43% 0.00in /  0mm
13:54 25.7 °F /  -3.5 °C 6.8 °F /  -14 °C 30.53in /  1033.7hPa NNW 6.0mph /  9.7km/h 14.0mph /  22.5km/h 44% 0.00in /  0mm
13:59 26.8 °F /  -2.9 °C 7.8 °F /  -13.4 °C 30.54in /  1034.1hPa WNW 7.0mph /  11.3km/h 16.0mph /  25.7km/h 44% 0.00in /  0mm
14:04 25.6 °F /  -3.6 °C 4.6 °F /  -15.2 °C 30.53in /  1033.7hPa NNW 5.0mph /  8km/h 10.0mph /  16.1km/h 40% 0.00in /  0mm
14:09 26.5 °F /  -3.1 °C 8.5 °F /  -13.1 °C 30.53in /  1033.7hPa NW 7.0mph /  11.3km/h 12.0mph /  19.3km/h 46% 0.00in /  0mm
14:14 26.6 °F /  -3 °C 7.6 °F /  -13.6 °C 30.53in /  1033.7hPa NW 7.0mph /  11.3km/h 13.0mph /  20.9km/h 44% 0.00in /  0mm
14:19 26.1 °F /  -3.3 °C 7.6 °F /  -13.6 °C 30.53in /  1033.7hPa North 3.0mph /  4.8km/h 12.0mph /  19.3km/h 45% 0.00in /  0mm
14:24 26.3 °F /  -3.2 °C 8.3 °F /  -13.2 °C 30.53in /  1033.7hPa NW 7.0mph /  11.3km/h 9.0mph /  14.5km/h 46% 0.00in /  0mm
14:29 28.1 °F /  -2.2 °C 9.0 °F /  -12.8 °C 30.53in /  1033.7hPa NNW 4.0mph /  6.4km/h 14.0mph /  22.5km/h 44% 0.00in /  0mm
14:34 26.4 °F /  -3.1 °C 6.4 °F /  -14.2 °C 30.53in /  1033.7hPa NNW 6.0mph /  9.7km/h 14.0mph /  22.5km/h 42% 0.00in /  0mm
14:39 26.9 °F /  -2.8 °C 6.8 °F /  -14 °C 30.53in /  1033.7hPa NNW 6.0mph /  9.7km/h 12.0mph /  19.3km/h 42% 0.00in /  0mm
14:44 26.2 °F /  -3.2 °C 6.2 °F /  -14.3 °C 30.52in /  1033.4hPa NNW 6.0mph /  9.7km/h 12.0mph /  19.3km/h 42% 0.00in /  0mm
14:49 27.4 °F /  -2.6 °C 6.8 °F /  -14 °C 30.52in /  1033.4hPa NNW 5.0mph /  8km/h 14.0mph /  22.5km/h 41% 0.00in /  0mm
14:54 27.0 °F /  -2.8 °C 7.4 °F /  -13.7 °C 30.52in /  1033.4hPa NW 6.0mph /  9.7km/h 11.0mph /  17.7km/h 43% 0.00in /  0mm
14:59 27.4 °F /  -2.6 °C 8.3 °F /  -13.2 °C 30.52in /  1033.4hPa NNW 2.0mph /  3.2km/h 11.0mph /  17.7km/h 44% 0.00in /  0mm
15:04 27.6 °F /  -2.4 °C 10.9 °F /  -11.7 °C 30.52in /  1033.4hPa NW 5.0mph /  8km/h 11.0mph /  17.7km/h 49% 0.00in /  0mm
15:09 27.4 °F /  -2.6 °C 6.8 °F /  -14 °C 30.52in /  1033.4hPa NW 5.0mph /  8km/h 15.0mph /  24.1km/h 41% 0.00in /  0mm
15:14 26.8 °F /  -2.9 °C 6.7 °F /  -14.1 °C 30.52in /  1033.4hPa NNW 6.0mph /  9.7km/h 15.0mph /  24.1km/h 42% 0.00in /  0mm
15:19 27.1 °F /  -2.7 °C 5.9 °F /  -14.5 °C 30.52in /  1033.4hPa NNW 7.0mph /  11.3km/h 17.0mph /  27.4km/h 40% 0.00in /  0mm
15:24 26.8 °F /  -2.9 °C 6.2 °F /  -14.3 °C 30.52in /  1033.4hPa NNW 7.0mph /  11.3km/h 17.0mph /  27.4km/h 41% 0.00in /  0mm
15:29 27.4 °F /  -2.6 °C 7.8 °F /  -13.4 °C 30.52in /  1033.4hPa NW 6.0mph /  9.7km/h 11.0mph /  17.7km/h 43% 0.00in /  0mm
15:34 27.2 °F /  -2.7 °C 8.1 °F /  -13.3 °C 30.52in /  1033.4hPa NW 8.0mph /  12.9km/h 13.0mph /  20.9km/h 44% 0.00in /  0mm
15:39 27.8 °F /  -2.3 °C 7.1 °F /  -13.8 °C 30.52in /  1033.4hPa WNW 6.0mph /  9.7km/h 14.0mph /  22.5km/h 41% 0.00in /  0mm
15:44 27.5 °F /  -2.5 °C 7.4 °F /  -13.7 °C 30.52in /  1033.4hPa NW 7.0mph /  11.3km/h 14.0mph /  22.5km/h 42% 0.00in /  0mm
15:49 28.1 °F /  -2.2 °C 9.0 °F /  -12.8 °C 30.52in /  1033.4hPa NW 4.0mph /  6.4km/h 12.0mph /  19.3km/h 44% 0.00in /  0mm
15:54 28.7 °F /  -1.8 °C 9.5 °F /  -12.5 °C 30.52in /  1033.4hPa NW 5.0mph /  8km/h 12.0mph /  19.3km/h 44% 0.00in /  0mm
15:59 28.7 °F /  -1.8 °C 9.5 °F /  -12.5 °C 30.51in /  1033.1hPa West 9.0mph /  14.5km/h 12.0mph /  19.3km/h 44% 0.00in /  0mm
16:04 28.2 °F /  -2.1 °C 6.9 °F /  -13.9 °C 30.51in /  1033.1hPa North 4.0mph /  6.4km/h 13.0mph /  20.9km/h 40% 0.00in /  0mm
16:09 27.6 °F /  -2.4 °C 6.9 °F /  -13.9 °C 30.51in /  1033.1hPa NNW 6.0mph /  9.7km/h 14.0mph /  22.5km/h 41% 0.00in /  0mm
16:14 28.2 °F /  -2.1 °C 8.5 °F /  -13.1 °C 30.51in /  1033.1hPa NW 6.0mph /  9.7km/h 14.0mph /  22.5km/h 43% 0.00in /  0mm
16:19 28.4 °F /  -2 °C 10.2 °F /  -12.1 °C 30.52in /  1033.4hPa WNW 6.0mph /  9.7km/h 14.0mph /  22.5km/h 46% 0.00in /  0mm
16:24 28.1 °F /  -2.2 °C 8.4 °F /  -13.1 °C 30.52in /  1033.4hPa WNW 6.0mph /  9.7km/h 17.0mph /  27.4km/h 43% 0.00in /  0mm
16:29 27.8 °F /  -2.3 °C 6.0 °F /  -14.4 °C 30.52in /  1033.4hPa NW 7.0mph /  11.3km/h 10.0mph /  16.1km/h 39% 0.00in /  0mm
16:34 28.3 °F /  -2.1 °C 8.1 °F /  -13.3 °C 30.51in /  1033.1hPa NW 2.0mph /  3.2km/h 11.0mph /  17.7km/h 42% 0.00in /  0mm
16:39 28.7 °F /  -1.8 °C 7.9 °F /  -13.4 °C 30.52in /  1033.4hPa WNW 6.0mph /  9.7km/h 12.0mph /  19.3km/h 41% 0.00in /  0mm
16:44 28.6 °F /  -1.9 °C 7.8 °F /  -13.4 °C 30.52in /  1033.4hPa NW 5.0mph /  8km/h 12.0mph /  19.3km/h 41% 0.00in /  0mm
16:49 28.2 °F /  -2.1 °C 6.4 °F /  -14.2 °C 30.52in /  1033.4hPa NW 5.0mph /  8km/h 12.0mph /  19.3km/h 39% 0.00in /  0mm
16:54 27.8 °F /  -2.3 °C 6.6 °F /  -14.1 °C 30.52in /  1033.4hPa NNW 6.0mph /  9.7km/h 11.0mph /  17.7km/h 40% 0.00in /  0mm
16:59 28.4 °F /  -2 °C 8.2 °F /  -13.2 °C 30.52in /  1033.4hPa NNW 4.0mph /  6.4km/h 10.0mph /  16.1km/h 42% 0.00in /  0mm
17:04 28.1 °F /  -2.2 °C 7.4 °F /  -13.7 °C 30.52in /  1033.4hPa NNW 5.0mph /  8km/h 12.0mph /  19.3km/h 41% 0.00in /  0mm
17:09 28.1 °F /  -2.2 °C 6.8 °F /  -14 °C 30.52in /  1033.4hPa North 6.0mph /  9.7km/h 11.0mph /  17.7km/h 40% 0.00in /  0mm
17:14 27.9 °F /  -2.3 °C 6.7 °F /  -14.1 °C 30.52in /  1033.4hPa NNW 5.0mph /  8km/h 11.0mph /  17.7km/h 40% 0.00in /  0mm
17:19 27.4 °F /  -2.6 °C 6.2 °F /  -14.3 °C 30.53in /  1033.7hPa NNW 6.0mph /  9.7km/h 13.0mph /  20.9km/h 40% 0.00in /  0mm
17:24 27.8 °F /  -2.3 °C 8.2 °F /  -13.2 °C 30.53in /  1033.7hPa NW 6.0mph /  9.7km/h 13.0mph /  20.9km/h 43% 0.00in /  0mm
17:29 27.8 °F /  -2.3 °C 7.6 °F /  -13.6 °C 30.53in /  1033.7hPa NNW 4.0mph /  6.4km/h 12.0mph /  19.3km/h 42% 0.00in /  0mm
17:34 27.9 °F /  -2.3 °C 6.7 °F /  -14.1 °C 30.52in /  1033.4hPa WNW 5.0mph /  8km/h 9.0mph /  14.5km/h 40% 0.00in /  0mm
17:39 27.9 °F /  -2.3 °C 6.1 °F /  -14.4 °C 30.53in /  1033.7hPa WNW 8.0mph /  12.9km/h 13.0mph /  20.9km/h 39% 0.00in /  0mm
17:44 27.7 °F /  -2.4 °C 5.9 °F /  -14.5 °C 30.53in /  1033.7hPa NNW 5.0mph /  8km/h 9.0mph /  14.5km/h 39% 0.00in /  0mm
17:49 27.6 °F /  -2.4 °C 5.8 °F /  -14.6 °C 30.52in /  1033.4hPa NW 5.0mph /  8km/h 12.0mph /  19.3km/h 39% 0.00in /  0mm
17:54 27.2 °F /  -2.7 °C 6.0 °F /  -14.4 °C 30.53in /  1033.7hPa NW 7.0mph /  11.3km/h 17.0mph /  27.4km/h 40% 0.00in /  0mm
17:59 26.9 °F /  -2.8 °C 5.2 °F /  -14.9 °C 30.52in /  1033.4hPa NW 7.0mph /  11.3km/h 17.0mph /  27.4km/h 39% 0.00in /  0mm
18:04 26.9 °F /  -2.8 °C 4.6 °F /  -15.2 °C 30.53in /  1033.7hPa NNW 8.0mph /  12.9km/h 11.0mph /  17.7km/h 38% 0.00in /  0mm
18:09 26.6 °F /  -3 °C 4.9 °F /  -15.1 °C 30.53in /  1033.7hPa West 5.0mph /  8km/h 13.0mph /  20.9km/h 39% 0.00in /  0mm
18:14 26.7 °F /  -2.9 °C 6.1 °F /  -14.4 °C 30.53in /  1033.7hPa NW 3.0mph /  4.8km/h 11.0mph /  17.7km/h 41% 0.00in /  0mm
18:19 26.6 °F /  -3 °C 6.0 °F /  -14.4 °C 30.53in /  1033.7hPa NNW 6.0mph /  9.7km/h 13.0mph /  20.9km/h 41% 0.00in /  0mm
18:24 26.7 °F /  -2.9 °C 6.6 °F /  -14.1 °C 30.54in /  1034.1hPa NNW 5.0mph /  8km/h 13.0mph /  20.9km/h 42% 0.00in /  0mm
18:29 26.8 °F /  -2.9 °C 6.7 °F /  -14.1 °C 30.54in /  1034.1hPa NW 4.0mph /  6.4km/h 11.0mph /  17.7km/h 42% 0.00in /  0mm
18:34 26.6 °F /  -3 °C 6.6 °F /  -14.1 °C 30.54in /  1034.1hPa NW 4.0mph /  6.4km/h 11.0mph /  17.7km/h 42% 0.00in /  0mm
18:39 26.3 °F /  -3.2 °C 6.3 °F /  -14.3 °C 30.54in /  1034.1hPa NW 6.0mph /  9.7km/h 13.0mph /  20.9km/h 42% 0.00in /  0mm
18:44 26.3 °F /  -3.2 °C 6.3 °F /  -14.3 °C 30.54in /  1034.1hPa North 3.0mph /  4.8km/h 10.0mph /  16.1km/h 42% 0.00in /  0mm
18:49 26.1 °F /  -3.3 °C 6.1 °F /  -14.4 °C 30.54in /  1034.1hPa NNW 7.0mph /  11.3km/h 11.0mph /  17.7km/h 42% 0.00in /  0mm
18:54 26.0 °F /  -3.3 °C 6.0 °F /  -14.4 °C 30.54in /  1034.1hPa NW 5.0mph /  8km/h 11.0mph /  17.7km/h 42% 0.00in /  0mm
18:59 25.9 °F /  -3.4 °C 6.4 °F /  -14.2 °C 30.54in /  1034.1hPa NNW 4.0mph /  6.4km/h 8.0mph /  12.9km/h 43% 0.00in /  0mm
19:04 25.9 °F /  -3.4 °C 6.4 °F /  -14.2 °C 30.53in /  1033.7hPa NW 7.0mph /  11.3km/h 13.0mph /  20.9km/h 43% 0.00in /  0mm
19:09 25.8 °F /  -3.4 °C 6.3 °F /  -14.3 °C 30.54in /  1034.1hPa NW 5.0mph /  8km/h 13.0mph /  20.9km/h 43% 0.00in /  0mm
19:14 25.6 °F /  -3.6 °C 6.2 °F /  -14.3 °C 30.54in /  1034.1hPa NNW 3.0mph /  4.8km/h 9.0mph /  14.5km/h 43% 0.00in /  0mm
19:19 25.3 °F /  -3.7 °C 5.9 °F /  -14.5 °C 30.54in /  1034.1hPa NW 4.0mph /  6.4km/h 7.0mph /  11.3km/h 43% 0.00in /  0mm
19:24 25.1 °F /  -3.8 °C 6.7 °F /  -14.1 °C 30.54in /  1034.1hPa NNW 3.0mph /  4.8km/h 7.0mph /  11.3km/h 45% 0.00in /  0mm
19:29 25.2 °F /  -3.8 °C 6.8 °F /  -14 °C 30.54in /  1034.1hPa NW 3.0mph /  4.8km/h 9.0mph /  14.5km/h 45% 0.00in /  0mm
19:34 25.2 °F /  -3.8 °C 6.8 °F /  -14 °C 30.54in /  1034.1hPa WNW 2.0mph /  3.2km/h 6.0mph /  9.7km/h 45% 0.00in /  0mm
19:39 25.1 °F /  -3.8 °C 6.2 °F /  -14.3 °C 30.54in /  1034.1hPa NW 1.0mph /  1.6km/h 8.0mph /  12.9km/h 44% 0.00in /  0mm
19:44 24.9 °F /  -3.9 °C 6.5 °F /  -14.2 °C 30.54in /  1034.1hPa NNW 3.0mph /  4.8km/h 5.0mph /  8km/h 45% 0.00in /  0mm
19:49 24.8 °F /  -4 °C 6.4 °F /  -14.2 °C 30.54in /  1034.1hPa NNW 2.0mph /  3.2km/h 7.0mph /  11.3km/h 45% 0.00in /  0mm
19:54 24.8 °F /  -4 °C 6.9 °F /  -13.9 °C 30.54in /  1034.1hPa NNW 4.0mph /  6.4km/h 7.0mph /  11.3km/h 46% 0.00in /  0mm
19:59 24.8 °F /  -4 °C 6.4 °F /  -14.2 °C 30.54in /  1034.1hPa NW 4.0mph /  6.4km/h 9.0mph /  14.5km/h 45% 0.00in /  0mm
20:04 24.6 °F /  -4.1 °C 6.7 °F /  -14.1 °C 30.54in /  1034.1hPa NW 3.0mph /  4.8km/h 9.0mph /  14.5km/h 46% 0.00in /  0mm
20:09 24.5 °F /  -4.2 °C 6.6 °F /  -14.1 °C 30.54in /  1034.1hPa NW 2.0mph /  3.2km/h 4.0mph /  6.4km/h 46% 0.00in /  0mm
20:14 24.4 °F /  -4.2 °C 6.6 °F /  -14.1 °C 30.54in /  1034.1hPa WNW 2.0mph /  3.2km/h 4.0mph /  6.4km/h 46% 0.00in /  0mm
20:19 24.4 °F /  -4.2 °C 7.0 °F /  -13.9 °C 30.54in /  1034.1hPa NW 2.0mph /  3.2km/h 5.0mph /  8km/h 47% 0.00in /  0mm
20:24 24.3 °F /  -4.3 °C 6.9 °F /  -13.9 °C 30.54in /  1034.1hPa NNW 2.0mph /  3.2km/h 4.0mph /  6.4km/h 47% 0.00in /  0mm
20:29 24.1 °F /  -4.4 °C 7.2 °F /  -13.8 °C 30.54in /  1034.1hPa Calm   4.0mph /  6.4km/h 48% 0.00in /  0mm
20:34 23.9 °F /  -4.5 °C 7.9 °F /  -13.4 °C 30.54in /  1034.1hPa NW 1.0mph /  1.6km/h 3.0mph /  4.8km/h 50% 0.00in /  0mm
20:39 23.8 °F /  -4.6 °C 7.8 °F /  -13.4 °C 30.54in /  1034.1hPa NW 1.0mph /  1.6km/h 3.0mph /  4.8km/h 50% 0.00in /  0mm
20:44 23.8 °F /  -4.6 °C 7.4 °F /  -13.7 °C 30.54in /  1034.1hPa Calm   2.0mph /  3.2km/h 49% 0.00in /  0mm
20:49 23.7 °F /  -4.6 °C 7.7 °F /  -13.5 °C 30.54in /  1034.1hPa Calm     50% 0.00in /  0mm
20:54 23.4 °F /  -4.8 °C 7.5 °F /  -13.6 °C 30.54in /  1034.1hPa Calm     50% 0.00in /  0mm
20:59 23.3 °F /  -4.8 °C 7.4 °F /  -13.7 °C 30.55in /  1034.4hPa Calm     50% 0.00in /  0mm
21:04 23.3 °F /  -4.8 °C 7.4 °F /  -13.7 °C 30.55in /  1034.4hPa Calm     50% 0.00in /  0mm
21:09 23.1 °F /  -4.9 °C 7.6 °F /  -13.6 °C 30.55in /  1034.4hPa Calm     51% 0.00in /  0mm
21:14 22.8 °F /  -5.1 °C 7.8 °F /  -13.4 °C 30.55in /  1034.4hPa Calm     52% 0.00in /  0mm
21:19 22.7 °F /  -5.2 °C 7.7 °F /  -13.5 °C 30.55in /  1034.4hPa Calm     52% 0.00in /  0mm
21:24 22.5 °F /  -5.3 °C 7.9 °F /  -13.4 °C 30.55in /  1034.4hPa Calm     53% 0.00in /  0mm
21:29 22.2 °F /  -5.4 °C 8.1 °F /  -13.3 °C 30.56in /  1034.8hPa Calm     54% 0.00in /  0mm
21:34 22.0 °F /  -5.6 °C 7.9 °F /  -13.4 °C 30.56in /  1034.8hPa Calm     54% 0.00in /  0mm
21:39 22.0 °F /  -5.6 °C 7.9 °F /  -13.4 °C 30.56in /  1034.8hPa Calm     54% 0.00in /  0mm
21:44 21.8 °F /  -5.7 °C 8.1 °F /  -13.3 °C 30.56in /  1034.8hPa Calm     55% 0.00in /  0mm
21:49 21.8 °F /  -5.7 °C 8.5 °F /  -13.1 °C 30.56in /  1034.8hPa Calm     56% 0.00in /  0mm
21:54 22.0 °F /  -5.6 °C 8.7 °F /  -12.9 °C 30.56in /  1034.8hPa Calm     56% 0.00in /  0mm
21:59 21.7 °F /  -5.7 °C 9.2 °F /  -12.7 °C 30.56in /  1034.8hPa Calm     58% 0.00in /  0mm
22:04 21.5 °F /  -5.8 °C 9.4 °F /  -12.6 °C 30.56in /  1034.8hPa Calm     59% 0.00in /  0mm
22:09 21.1 °F /  -6.1 °C 9.4 °F /  -12.6 °C 30.56in /  1034.8hPa Calm     60% 0.00in /  0mm
22:14 20.9 °F /  -6.2 °C 9.2 °F /  -12.7 °C 30.56in /  1034.8hPa Calm     60% 0.00in /  0mm
22:19 20.9 °F /  -6.2 °C 9.2 °F /  -12.7 °C 30.56in /  1034.8hPa Calm     60% 0.00in /  0mm
22:24 20.8 °F /  -6.2 °C 9.5 °F /  -12.5 °C 30.57in /  1035.1hPa Calm     61% 0.00in /  0mm
22:29 20.8 °F /  -6.2 °C 9.8 °F /  -12.3 °C 30.56in /  1034.8hPa Calm     62% 0.00in /  0mm
22:34 20.6 °F /  -6.3 °C 9.6 °F /  -12.4 °C 30.56in /  1034.8hPa Calm     62% 0.00in /  0mm
22:39 20.4 °F /  -6.4 °C 9.8 °F /  -12.3 °C 30.56in /  1034.8hPa Calm     63% 0.00in /  0mm
22:44 20.6 °F /  -6.3 °C 10.3 °F /  -12.1 °C 30.56in /  1034.8hPa Calm     64% 0.00in /  0mm
22:49 20.3 °F /  -6.5 °C 10.1 °F /  -12.2 °C 30.57in /  1035.1hPa Calm     64% 0.00in /  0mm
22:54 20.0 °F /  -6.7 °C 10.5 °F /  -11.9 °C 30.56in /  1034.8hPa Calm     66% 0.00in /  0mm
22:59 19.9 °F /  -6.7 °C 10.7 °F /  -11.8 °C 30.56in /  1034.8hPa Calm     67% 0.00in /  0mm
23:04 19.9 °F /  -6.7 °C 10.7 °F /  -11.8 °C 30.57in /  1035.1hPa Calm     67% 0.00in /  0mm
23:09 19.7 °F /  -6.8 °C 10.8 °F /  -11.8 °C 30.57in /  1035.1hPa Calm     68% 0.00in /  0mm
23:14 19.4 °F /  -7 °C 10.6 °F /  -11.9 °C 30.57in /  1035.1hPa Calm     68% 0.00in /  0mm
23:19 19.4 °F /  -7 °C 10.9 °F /  -11.7 °C 30.56in /  1034.8hPa Calm     69% 0.00in /  0mm
23:24 19.4 °F /  -7 °C 11.2 °F /  -11.6 °C 30.56in /  1034.8hPa Calm     70% 0.00in /  0mm
23:29 19.4 °F /  -7 °C 11.5 °F /  -11.4 °C 30.56in /  1034.8hPa Calm     71% 0.00in /  0mm
23:34 19.1 °F /  -7.2 °C 10.9 °F /  -11.7 °C 30.56in /  1034.8hPa Calm     70% 0.00in /  0mm
23:39 19.1 °F /  -7.2 °C 11.2 °F /  -11.6 °C 30.56in /  1034.8hPa Calm     71% 0.00in /  0mm
23:44 19.4 °F /  -7 °C 11.5 °F /  -11.4 °C 30.56in /  1034.8hPa Calm     71% 0.00in /  0mm
23:49 19.0 °F /  -7.2 °C 11.1 °F /  -11.6 °C 30.56in /  1034.8hPa Calm     71% 0.00in /  0mm
23:54 19.3 °F /  -7.1 °C 11.4 °F /  -11.4 °C 30.56in /  1034.8hPa Calm     71% 0.00in /  0mm
Buffalo, New York, USA
Compliments of Weather Underground - 2.5 mb